createdAt,value
2022-11-29T00:01:27.123Z,100802.11
2022-11-29T00:03:54.185Z,100800.81
2022-11-29T00:06:22.519Z,100802.77
2022-11-29T00:08:49.504Z,100804.77
2022-11-29T00:11:36.464Z,100804.56
2022-11-29T00:14:03.192Z,100802.34
2022-11-29T00:16:29.954Z,100803.34
2022-11-29T00:18:56.664Z,100800.44
2022-11-29T00:21:23.363Z,100807.45
2022-11-29T00:23:50.150Z,100806.30
2022-11-29T00:26:16.845Z,100804.86
2022-11-29T00:28:43.627Z,100801.30
2022-11-29T00:31:21.546Z,100797.31
2022-11-29T00:33:48.521Z,100796.29
2022-11-29T00:36:15.462Z,100797.27
2022-11-29T00:38:42.101Z,100799.91
2022-11-29T00:41:09.182Z,100799.77
2022-11-29T00:43:35.980Z,100797.64
2022-11-29T00:46:02.957Z,100797.66
2022-11-29T00:48:29.813Z,100801.48
2022-11-29T00:50:56.457Z,100806.40
2022-11-29T00:53:23.241Z,100801.49
2022-11-29T00:55:50.823Z,100799.34
2022-11-29T00:58:18.374Z,100806.12
2022-11-29T01:00:45.234Z,100805.14
2022-11-29T01:03:11.803Z,100802.95
2022-11-29T01:05:38.555Z,100797.95
2022-11-29T01:08:05.555Z,100797.97
2022-11-29T01:10:32.509Z,100794.91
2022-11-29T01:12:59.266Z,100800.52
2022-11-29T01:15:27.896Z,100802.27
2022-11-29T01:17:54.705Z,100802.22
2022-11-29T01:20:21.351Z,100795.48
2022-11-29T01:22:48.087Z,100790.98
2022-11-29T01:25:14.971Z,100787.70
2022-11-29T01:27:41.668Z,100792.75
2022-11-29T01:30:09.537Z,100796.60
2022-11-29T01:32:36.534Z,100796.39
2022-11-29T01:35:04.345Z,100797.11
2022-11-29T01:37:31.080Z,100798.72
2022-11-29T01:39:57.794Z,100798.32
2022-11-29T01:42:24.672Z,100793.09
2022-11-29T01:45:21.013Z,100795.74
2022-11-29T01:47:47.961Z,100796.09
2022-11-29T01:50:14.703Z,100795.12
2022-11-29T01:52:41.463Z,100791.34
2022-11-29T01:55:10.036Z,100791.47
2022-11-29T01:57:37.191Z,100790.73
2022-11-29T02:00:12.014Z,100788.85
2022-11-29T02:02:59.321Z,100789.61
2022-11-29T02:05:26.079Z,100787.48
2022-11-29T02:07:54.210Z,100776.63
2022-11-29T02:10:24.522Z,100773.61
2022-11-29T02:13:12.491Z,100773.41
2022-11-29T02:15:48.569Z,100772.91
2022-11-29T02:18:27.281Z,100777.95
2022-11-29T02:21:09.121Z,100782.59
2022-11-29T02:24:07.459Z,100784.50
2022-11-29T02:26:56.419Z,100789.91
2022-11-29T02:29:44.883Z,100792.58
2022-11-29T02:32:49.146Z,100796.98
2022-11-29T02:35:34.308Z,100796.33
2022-11-29T02:38:38.561Z,100794.45
2022-11-29T02:41:43.116Z,100794.85
2022-11-29T02:44:28.410Z,100801.05
2022-11-29T02:47:04.596Z,100803.21
2022-11-29T02:49:50.624Z,100801.73
2022-11-29T02:52:21.085Z,100801.29
2022-11-29T02:55:15.243Z,100806.64
2022-11-29T02:58:19.549Z,100805.02
2022-11-29T03:01:17.338Z,100798.27
2022-11-29T03:03:59.440Z,100798.38
2022-11-29T03:06:38.898Z,100797.31
2022-11-29T03:09:30.014Z,100791.27
2022-11-29T03:12:14.977Z,100796.07
2022-11-29T03:14:54.612Z,100794.25
2022-11-29T03:17:30.234Z,100788.95
2022-11-29T03:20:20.202Z,100789.02
2022-11-29T03:23:08.979Z,100792.64
2022-11-29T03:25:39.449Z,100802.58
2022-11-29T03:28:27.917Z,100807.45
2022-11-29T03:30:57.336Z,100810.17
2022-11-29T03:33:57.295Z,100818.77
2022-11-29T03:36:26.968Z,100821.67
2022-11-29T03:38:55.429Z,100824.52
2022-11-29T03:41:27.548Z,100821.09
2022-11-29T03:44:09.777Z,100814.63
2022-11-29T03:46:37.651Z,100818.61
2022-11-29T03:49:09.740Z,100825.56
2022-11-29T03:51:52.675Z,100827.64
2022-11-29T03:54:24.460Z,100829.23
2022-11-29T03:56:51.467Z,100832.90
2022-11-29T03:59:34.338Z,100838.36
2022-11-29T04:02:22.727Z,100839.50
2022-11-29T04:05:11.908Z,100839.60
2022-11-29T04:08:16.439Z,100840.60
2022-11-29T04:11:12.334Z,100844.00
2022-11-29T04:14:17.725Z,100849.91
2022-11-29T04:17:05.144Z,100845.93
2022-11-29T04:20:09.555Z,100844.39
2022-11-29T04:23:06.797Z,100841.85
2022-11-29T04:26:00.836Z,100836.46
2022-11-29T04:28:50.783Z,100838.50
2022-11-29T04:31:23.090Z,100839.62
2022-11-29T04:33:58.743Z,100842.21
2022-11-29T04:36:40.509Z,100834.86
2022-11-29T04:39:17.328Z,100837.21
2022-11-29T04:42:02.211Z,100846.80
2022-11-29T04:44:44.229Z,100850.77
2022-11-29T04:47:29.321Z,100851.75
2022-11-29T04:50:31.427Z,100849.38
2022-11-29T04:53:04.095Z,100853.68
2022-11-29T04:56:06.868Z,100854.27
2022-11-29T04:58:52.001Z,100855.80
2022-11-29T05:01:31.294Z,100850.81
2022-11-29T05:04:27.681Z,100853.02
2022-11-29T05:07:08.164Z,100845.73
2022-11-29T05:09:51.181Z,100844.95
2022-11-29T08:08:51.924Z,100944.96
2022-11-29T08:11:18.773Z,100943.30
2022-11-29T08:13:46.401Z,100945.23
2022-11-29T08:16:18.086Z,100944.34
2022-11-29T08:18:45.041Z,100947.23
2022-11-29T08:21:11.768Z,100946.66
2022-11-29T08:23:38.520Z,100947.34
2022-11-29T08:26:05.450Z,100941.33
2022-11-29T08:28:32.423Z,100931.39
2022-11-29T08:31:05.247Z,100932.79
2022-11-29T08:33:32.414Z,100929.01
2022-11-29T08:39:27.666Z,100934.77
2022-11-29T08:41:54.442Z,100929.71
2022-11-29T08:44:21.373Z,100926.65
2022-11-29T08:47:06.972Z,100935.78
2022-11-29T08:49:35.818Z,100929.64
2022-11-29T08:52:24.562Z,100917.89
2022-11-29T08:55:02.901Z,100926.66
2022-11-29T08:57:41.230Z,100921.94
2022-11-29T09:00:08.973Z,100920.73
2022-11-29T09:02:38.866Z,100918.89
2022-11-29T09:05:09.901Z,100918.36
2022-11-29T09:07:39.724Z,100918.28
2022-11-29T09:10:08.363Z,100915.21
2022-11-29T09:12:36.086Z,100913.73
2022-11-29T09:15:07.160Z,100910.70
2022-11-29T09:17:34.189Z,100911.50
2022-11-29T09:20:01.007Z,100911.85
2022-11-29T09:22:30.785Z,100909.38
2022-11-29T09:24:57.633Z,100910.95
2022-11-29T09:27:24.403Z,100907.48
2022-11-29T09:29:52.948Z,100907.39
2022-11-29T09:32:19.783Z,100905.31
2022-11-29T09:34:47.581Z,100884.58
2022-11-29T09:37:14.702Z,100883.64
2022-11-29T09:39:46.040Z,100900.21
2022-11-29T09:42:39.855Z,100900.14
2022-11-29T09:45:09.734Z,100889.69
2022-11-29T09:47:59.043Z,100877.60
2022-11-29T09:50:28.149Z,100875.60
2022-11-29T09:53:24.190Z,100879.54
2022-11-29T09:56:01.126Z,100875.43
2022-11-29T09:58:33.911Z,100879.14
2022-11-29T10:01:03.082Z,100881.14
2022-11-29T10:03:39.447Z,100882.17
2022-11-29T10:06:41.121Z,100884.83
2022-11-29T10:09:30.838Z,100886.80
2022-11-29T10:12:11.004Z,100887.39
2022-11-29T10:14:48.853Z,100889.55
2022-11-29T10:17:36.627Z,100889.81
2022-11-29T10:20:25.275Z,100890.27
2022-11-29T10:22:56.117Z,100885.73
2022-11-29T10:25:26.722Z,100883.43
2022-11-29T10:27:54.671Z,100875.27
2022-11-29T10:30:21.699Z,100877.14
2022-11-29T10:32:55.451Z,100879.98
2022-11-29T10:35:22.840Z,100885.35
2022-11-29T10:38:14.529Z,100886.98
2022-11-29T10:40:40.201Z,100889.25
2022-11-29T10:43:07.984Z,100879.66
2022-11-29T10:45:50.028Z,100881.54
2022-11-29T10:48:20.598Z,100869.48
2022-11-29T10:50:56.168Z,100885.41
2022-11-29T10:53:28.333Z,100884.41
2022-11-29T10:55:59.151Z,100888.33
2022-11-29T10:58:28.576Z,100883.42
2022-11-29T11:06:21.179Z,100887.17
2022-11-29T11:09:15.233Z,100890.28
2022-11-29T11:11:45.255Z,100890.25
2022-11-29T11:14:26.134Z,100886.08
2022-11-29T11:16:53.992Z,100888.81
2022-11-29T11:19:32.466Z,100887.60
2022-11-29T11:22:03.823Z,100884.63
2022-11-29T11:24:36.219Z,100881.64
2022-11-29T11:27:06.788Z,100884.45
2022-11-29T11:29:54.477Z,100858.02
2022-11-29T11:32:45.139Z,100841.26
2022-11-29T11:35:23.439Z,100885.77
2022-11-29T11:37:56.733Z,100884.09
2022-11-29T11:40:29.197Z,100887.89
2022-11-29T11:43:00.636Z,100886.99
2022-11-29T11:45:31.171Z,100860.47
2022-11-29T11:48:01.655Z,100874.43
2022-11-29T11:50:42.709Z,100882.64
2022-11-29T11:53:36.555Z,100875.55
2022-11-29T11:56:08.212Z,100875.56
2022-11-29T11:58:37.061Z,100870.66
2022-11-29T12:01:13.307Z,100867.21
2022-11-29T12:04:14.914Z,100869.35
2022-11-29T12:07:01.012Z,100872.30
2022-11-29T12:09:40.496Z,100870.86
2022-11-29T12:12:16.424Z,100864.60
2022-11-29T12:14:55.466Z,100865.55
2022-11-29T12:17:35.322Z,100860.94
2022-11-29T12:20:24.781Z,100858.02
2022-11-29T12:23:13.004Z,100856.46
2022-11-29T12:25:45.711Z,100864.04
2022-11-29T12:28:17.172Z,100862.51
2022-11-29T12:31:03.489Z,100859.50
2022-11-29T12:33:37.039Z,100860.59
2022-11-29T12:36:13.236Z,100868.94
2022-11-29T12:38:49.016Z,100870.61
2022-11-29T12:41:25.464Z,100866.98
2022-11-29T12:44:10.781Z,100859.34
2022-11-29T12:46:38.597Z,100868.18
2022-11-29T12:49:40.811Z,100865.88
2022-11-29T12:52:22.806Z,100868.45
2022-11-29T12:55:10.507Z,100863.48
2022-11-29T12:57:59.321Z,100861.63
2022-11-29T13:00:27.139Z,100867.23
2022-11-29T13:03:27.976Z,100867.28
2022-11-29T13:05:58.855Z,100870.63
2022-11-29T13:08:37.740Z,100866.95
2022-11-29T13:11:30.938Z,100873.80
2022-11-29T13:14:47.937Z,100882.00
2022-11-29T16:51:10.289Z,100890.61
2022-11-29T16:53:38.183Z,100897.09
2022-11-29T16:56:05.185Z,100902.21
2022-11-29T16:58:31.990Z,100904.85
2022-11-29T17:00:58.726Z,100903.86
2022-11-29T17:03:25.504Z,100901.02
2022-11-29T17:05:52.261Z,100900.70
2022-11-29T17:08:19.003Z,100899.81
2022-11-29T17:10:45.692Z,100889.36
2022-11-29T17:13:12.451Z,100902.33
2022-11-29T17:15:39.320Z,100897.68
2022-11-29T17:18:05.960Z,100902.33
2022-11-29T17:20:32.661Z,100902.58
2022-11-29T17:22:59.381Z,100901.13
2022-11-29T17:25:26.077Z,100906.59
2022-11-29T17:27:52.811Z,100903.24
2022-11-29T17:30:19.723Z,100902.17
2022-11-29T17:32:46.456Z,100902.64
2022-11-29T17:35:13.451Z,100905.01
2022-11-29T17:37:40.084Z,100908.35
2022-11-29T17:40:07.913Z,100913.48
2022-11-29T17:42:34.611Z,100909.40
2022-11-29T17:45:01.552Z,100911.90
2022-11-29T17:47:28.241Z,100916.27
2022-11-29T17:49:55.059Z,100913.73
2022-11-29T17:52:21.772Z,100912.23
2022-11-29T17:54:48.615Z,100915.88
2022-11-29T17:57:15.284Z,100914.58
2022-11-29T17:59:42.054Z,100913.73
2022-11-29T18:02:09.813Z,100914.23
2022-11-29T18:04:37.425Z,100913.91
2022-11-29T18:07:05.350Z,100906.55
2022-11-29T18:09:32.083Z,100910.79
2022-11-29T18:11:58.808Z,100915.30
2022-11-29T18:14:28.387Z,100917.48
2022-11-29T18:16:55.299Z,100915.05
2022-11-29T18:19:22.294Z,100909.95
2022-11-29T18:21:49.581Z,100911.13
2022-11-29T18:24:16.526Z,100912.02
2022-11-29T18:26:43.371Z,100909.57
2022-11-29T18:29:10.024Z,100916.73
2022-11-29T18:31:38.900Z,100916.53
2022-11-29T18:34:12.952Z,100911.91
2022-11-29T18:36:43.020Z,100908.20
2022-11-29T18:39:14.791Z,100909.52
2022-11-29T18:41:47.588Z,100906.58
2022-11-29T18:44:15.038Z,100912.04
2022-11-29T18:46:43.185Z,100911.82
2022-11-29T18:49:11.500Z,100908.73
2022-11-29T18:51:38.353Z,100915.67
2022-11-29T18:54:05.369Z,100913.23
2022-11-29T18:56:32.975Z,100911.92
2022-11-29T18:59:04.800Z,100913.08
2022-11-29T19:01:32.708Z,100911.87
2022-11-29T19:04:00.220Z,100912.27
2022-11-29T19:06:38.956Z,100913.70
2022-11-29T19:09:07.249Z,100910.65
2022-11-29T19:11:34.447Z,100912.72
2022-11-29T19:14:03.860Z,100911.10
2022-11-29T19:16:32.157Z,100915.30
2022-11-29T19:18:59.521Z,100918.26
2022-11-29T19:21:27.068Z,100915.41
2022-11-29T19:23:58.033Z,100915.85
2022-11-29T19:26:26.601Z,100916.02
2022-11-29T19:28:53.526Z,100908.59
2022-11-29T19:31:20.768Z,100912.52
2022-11-29T19:33:47.527Z,100910.46
2022-11-29T19:36:16.168Z,100913.53
2022-11-29T19:38:43.432Z,100912.17
2022-11-29T19:41:10.904Z,100912.90
2022-11-29T19:43:37.716Z,100918.79
2022-11-29T19:46:08.471Z,100914.42
2022-11-29T19:48:35.644Z,100918.52
2022-11-29T19:51:02.545Z,100919.23
2022-11-29T19:53:29.278Z,100920.61
2022-11-29T19:55:56.011Z,100919.59
2022-11-29T19:58:22.852Z,100920.73
2022-11-29T20:00:49.533Z,100915.98
2022-11-29T20:03:16.410Z,100920.61
2022-11-29T20:05:43.288Z,100922.05
2022-11-29T20:08:09.959Z,100921.41
2022-11-29T20:10:36.716Z,100925.54
2022-11-29T20:13:03.409Z,100925.90
2022-11-29T20:15:30.202Z,100921.45
2022-11-29T20:17:56.873Z,100923.48
2022-11-29T20:20:23.867Z,100919.96
2022-11-29T20:22:52.262Z,100927.27
2022-11-29T20:25:19.045Z,100925.98
2022-11-29T20:27:45.778Z,100917.64
2022-11-29T20:30:13.270Z,100925.41
2022-11-29T20:32:40.095Z,100927.45
2022-11-29T20:35:07.021Z,100926.95
2022-11-29T20:37:51.470Z,100928.25
2022-11-29T20:40:21.116Z,100927.89
2022-11-29T20:43:10.710Z,100928.98
2022-11-29T20:45:38.003Z,100931.58
2022-11-29T20:48:21.667Z,100926.86
2022-11-29T20:50:54.814Z,100927.77
2022-11-29T20:53:31.845Z,100931.48
2022-11-29T20:55:58.701Z,100929.30
2022-11-29T20:58:26.512Z,100926.42
2022-11-29T21:00:54.445Z,100928.19
2022-11-29T21:03:21.537Z,100928.25
2022-11-29T21:05:48.517Z,100929.40
2022-11-29T21:08:15.768Z,100930.22
2022-11-29T21:10:42.568Z,100927.11
2022-11-29T21:13:10.474Z,100935.26
2022-11-29T21:15:37.586Z,100935.94
2022-11-29T21:18:04.681Z,100932.45
2022-11-29T21:20:31.753Z,100933.55
2022-11-29T21:23:14.999Z,100933.58
2022-11-29T21:25:45.028Z,100934.00
2022-11-29T21:28:12.941Z,100936.23
2022-11-29T21:30:40.168Z,100936.85
2022-11-29T21:33:07.348Z,100932.16
2022-11-29T21:35:34.201Z,100930.19
2022-11-29T21:38:01.010Z,100926.34
2022-11-29T21:40:28.220Z,100924.75
2022-11-29T21:42:54.935Z,100920.45
2022-11-29T21:45:21.675Z,100920.17
2022-11-29T21:47:48.608Z,100919.94
2022-11-29T21:50:15.360Z,100921.83
2022-11-29T21:52:43.657Z,100923.61
2022-11-29T21:55:10.485Z,100925.34
2022-11-29T21:57:37.667Z,100923.33
2022-11-29T22:00:05.557Z,100922.60
2022-11-29T22:02:32.456Z,100925.58
2022-11-29T22:04:59.282Z,100927.39
2022-11-29T22:07:26.814Z,100927.48
2022-11-29T22:09:53.569Z,100931.94
2022-11-29T22:12:33.870Z,100927.93
2022-11-29T22:15:01.260Z,100927.98
2022-11-29T22:17:28.015Z,100930.47
2022-11-29T22:19:54.969Z,100931.27
2022-11-29T22:22:22.113Z,100932.23
2022-11-29T22:24:49.121Z,100930.69
2022-11-29T22:27:18.412Z,100928.27
2022-11-29T22:29:45.331Z,100926.46
2022-11-29T22:32:11.960Z,100925.74
2022-11-29T22:34:38.698Z,100924.52
2022-11-29T22:37:05.923Z,100928.61
2022-11-29T22:39:32.588Z,100927.17
2022-11-29T22:41:59.288Z,100925.02
2022-11-29T22:44:25.984Z,100927.02
2022-11-29T22:46:52.822Z,100932.02
2022-11-29T22:49:19.487Z,100929.27
2022-11-29T22:51:46.253Z,100928.02
2022-11-29T22:54:15.494Z,100926.79
2022-11-29T22:56:42.790Z,100926.81
2022-11-29T22:59:09.523Z,100922.94
2022-11-29T23:01:37.730Z,100919.47
2022-11-29T23:04:07.025Z,100916.87
2022-11-29T23:06:40.945Z,100918.95
2022-11-29T23:09:11.913Z,100919.37
2022-11-29T23:11:38.693Z,100916.14
2022-11-29T23:14:05.401Z,100916.81
2022-11-29T23:16:32.993Z,100915.34
2022-11-29T23:19:00.143Z,100915.10
2022-11-29T23:21:28.913Z,100912.85
2022-11-29T23:23:56.835Z,100910.02
2022-11-29T23:26:28.436Z,100910.83
2022-11-29T23:28:55.469Z,100909.61
2022-11-29T23:31:22.508Z,100909.79
2022-11-29T23:33:49.481Z,100914.34
2022-11-29T23:36:16.226Z,100912.88
2022-11-29T23:38:43.111Z,100910.88
2022-11-29T23:41:09.981Z,100904.83
2022-11-29T23:43:37.497Z,100908.98
2022-11-29T23:46:12.640Z,100912.46
2022-11-29T23:48:39.488Z,100917.73
2022-11-29T23:51:06.258Z,100917.56
2022-11-29T23:53:33.014Z,100923.13
2022-11-29T23:56:07.619Z,100927.23
2022-11-29T23:58:34.647Z,100920.05
